Time;durP1;ratioP1;P1;durP2;ratioP2;P2;SDS_P1;SDS_P2;PMS_P1;PMS_P2;Temp;Humidity;BMP_temperature;BMP_pressure;BME280_temperature;BME280_humidity;BME280_pressure;Samples;Min_cycle;Max_cycle;Signal;HPM_P1;HPM_P2
2021/12/23 00:00:07;;;;;;;21.30;14.30;;;;;;;;;;5010430;28;20581;-61
2021/12/23 00:02:32;;;;;;;22.30;13.87;;;;;;;;;;5011111;28;20204;-61
2021/12/23 00:04:57;;;;;;;23.07;13.70;;;;;;;;;;5011611;28;20218;-61
2021/12/23 00:07:23;;;;;;;22.17;14.83;;;;;;;;;;5011713;28;20661;-61
2021/12/23 00:12:13;;;;;;;23.03;14.30;;;;;;;;;;5010833;28;20599;-61
2021/12/23 00:14:39;;;;;;;20.17;14.10;;;;;;;;;;5010381;28;20291;-61
2021/12/23 00:17:27;;;;;;;20.73;13.77;;;;;;;;;;5009889;28;20468;-61
2021/12/23 00:25:14;;;;;;;19.17;13.27;;;;;;;;;;5010720;28;20216;-61
2021/12/23 00:27:39;;;;;;;24.20;14.57;;;;;;;;;;5011700;28;20220;-61
2021/12/23 00:30:05;;;;;;;23.20;14.30;;;;;;;;;;5010040;28;20226;-61
2021/12/23 00:32:30;;;;;;;19.30;13.63;;;;;;;;;;5011116;28;20217;-60
2021/12/23 00:34:55;;;;;;;21.47;14.00;;;;;;;;;;5011892;28;20224;-61
2021/12/23 00:37:21;;;;;;;22.83;13.60;;;;;;;;;;5010928;28;20771;-61
2021/12/23 00:39:46;;;;;;;22.47;12.90;;;;;;;;;;5009205;28;20226;-61
2021/12/23 00:42:12;;;;;;;20.27;13.57;;;;;;;;;;5011086;28;20219;-61
2021/12/23 00:44:40;;;;;;;20.57;13.53;;;;;;;;;;5011339;28;20609;-62
2021/12/23 00:47:05;;;;;;;23.43;14.53;;;;;;;;;;5010204;28;20212;-61
2021/12/23 00:49:31;;;;;;;19.80;13.10;;;;;;;;;;5011547;28;20298;-61
2021/12/23 00:51:57;;;;;;;20.70;13.57;;;;;;;;;;5011502;28;20208;-61
2021/12/23 00:54:22;;;;;;;20.03;13.87;;;;;;;;;;5010303;28;20220;-61
2021/12/23 00:56:50;;;;;;;20.03;13.20;;;;;;;;;;5011122;28;20228;-61
2021/12/23 00:59:15;;;;;;;20.90;13.53;;;;;;;;;;5010865;28;20596;-61
2021/12/23 01:01:41;;;;;;;21.23;14.43;;;;;;;;;;5010621;28;20223;-61
2021/12/23 01:04:06;;;;;;;20.87;14.00;;;;;;;;;;5010820;28;20286;-61
2021/12/23 01:06:32;;;;;;;19.50;13.57;;;;;;;;;;5010492;28;20660;-61
2021/12/23 01:08:57;;;;;;;19.67;13.47;;;;;;;;;;5011307;28;20223;-61
2021/12/23 01:11:24;;;;;;;22.30;14.13;;;;;;;;;;5009146;28;20674;-61
2021/12/23 01:14:01;;;;;;;22.57;14.70;;;;;;;;;;5009034;28;20216;-61
2021/12/23 01:16:48;;;;;;;24.90;15.03;;;;;;;;;;5009448;28;20228;-61
2021/12/23 01:19:12;;;;;;;23.83;14.90;;;;;;;;;;5009299;28;20204;-61
2021/12/23 01:21:37;;;;;;;23.13;14.47;;;;;;;;;;5008898;28;20204;-61
2021/12/23 01:24:03;;;;;;;21.77;14.40;;;;;;;;;;5010499;28;20209;-61
2021/12/23 01:26:28;;;;;;;22.07;14.40;;;;;;;;;;5010796;28;20295;-61
2021/12/23 01:28:54;;;;;;;23.30;14.57;;;;;;;;;;5010146;28;20570;-61
2021/12/23 01:31:21;;;;;;;21.63;14.60;;;;;;;;;;5010320;28;20215;-61
2021/12/23 01:33:46;;;;;;;21.70;14.43;;;;;;;;;;5010766;28;20296;-61
2021/12/23 01:36:11;;;;;;;21.57;15.00;;;;;;;;;;5009410;28;20689;-61
2021/12/23 01:38:37;;;;;;;24.53;14.80;;;;;;;;;;5009422;28;20322;-61
2021/12/23 01:41:02;;;;;;;22.30;15.03;;;;;;;;;;5009941;28;20217;-61
2021/12/23 01:43:27;;;;;;;22.40;15.07;;;;;;;;;;5010069;28;20291;-61
2021/12/23 01:45:53;;;;;;;21.73;14.13;;;;;;;;;;5010209;28;20688;-61
2021/12/23 01:48:18;;;;;;;21.47;14.20;;;;;;;;;;5008702;28;20208;-61
2021/12/23 01:50:43;;;;;;;24.33;15.03;;;;;;;;;;4991630;28;20214;-61
2021/12/23 01:53:09;;;;;;;21.60;15.30;;;;;;;;;;5009985;28;20216;-61
2021/12/23 01:55:35;;;;;;;24.43;16.27;;;;;;;;;;5008456;28;20248;-61
2021/12/23 01:58:00;;;;;;;24.97;15.83;;;;;;;;;;5010134;28;20672;-61
2021/12/23 02:00:26;;;;;;;24.27;15.00;;;;;;;;;;5010109;28;20246;-61
2021/12/23 02:02:52;;;;;;;23.80;15.87;;;;;;;;;;5009742;28;20279;-61
2021/12/23 02:05:17;;;;;;;23.03;14.57;;;;;;;;;;5008703;28;20208;-61
2021/12/23 02:07:43;;;;;;;24.23;15.70;;;;;;;;;;5005768;28;20209;-61
2021/12/23 02:10:08;;;;;;;22.57;14.73;;;;;;;;;;4989588;28;20244;-61
2021/12/23 02:12:33;;;;;;;20.40;14.53;;;;;;;;;;4989297;28;20228;-61
2021/12/23 02:14:59;;;;;;;23.87;15.20;;;;;;;;;;4989330;28;20213;-61
2021/12/23 02:17:24;;;;;;;24.43;15.83;;;;;;;;;;4989414;28;20677;-61
2021/12/23 02:19:55;;;;;;;22.87;15.80;;;;;;;;;;4990633;28;20213;-61
2021/12/23 02:22:20;;;;;;;24.20;15.70;;;;;;;;;;5001747;28;20216;-61
2021/12/23 02:24:45;;;;;;;22.53;14.80;;;;;;;;;;5008238;28;20208;-61
2021/12/23 02:27:11;;;;;;;23.67;15.23;;;;;;;;;;5009584;28;20216;-61
2021/12/23 02:29:36;;;;;;;23.07;15.00;;;;;;;;;;5008947;28;20212;-61
2021/12/23 02:32:02;;;;;;;22.63;14.83;;;;;;;;;;5007577;28;20303;-62
2021/12/23 02:34:27;;;;;;;22.60;15.17;;;;;;;;;;5008661;28;20769;-61
2021/12/23 02:36:53;;;;;;;24.03;15.53;;;;;;;;;;5010272;28;20358;-61
2021/12/23 02:39:18;;;;;;;21.40;15.07;;;;;;;;;;5008825;28;20208;-61
2021/12/23 02:41:44;;;;;;;25.37;16.37;;;;;;;;;;5010041;28;20212;-61
2021/12/23 02:44:09;;;;;;;23.97;16.00;;;;;;;;;;5009309;28;20688;-60
2021/12/23 02:46:35;;;;;;;24.20;15.63;;;;;;;;;;5007581;28;20718;-60
2021/12/23 02:49:00;;;;;;;24.37;15.50;;;;;;;;;;5009448;28;20208;-61
2021/12/23 02:51:26;;;;;;;22.93;14.83;;;;;;;;;;5009940;28;20671;-60
2021/12/23 02:53:51;;;;;;;22.73;14.30;;;;;;;;;;5009252;28;20213;-60
2021/12/23 02:56:16;;;;;;;21.50;14.43;;;;;;;;;;5009408;28;20227;-60
2021/12/23 02:58:43;;;;;;;22.10;13.97;;;;;;;;;;5009969;28;20252;-60
2021/12/23 03:01:08;;;;;;;21.60;15.37;;;;;;;;;;5010008;28;20220;-60
2021/12/23 03:03:33;;;;;;;23.13;15.37;;;;;;;;;;5012107;28;20275;-60
2021/12/23 03:05:59;;;;;;;23.50;15.13;;;;;;;;;;5012551;28;20961;-60
2021/12/23 03:08:31;;;;;;;21.93;15.33;;;;;;;;;;5012968;28;20212;-60
2021/12/23 03:10:57;;;;;;;23.37;15.73;;;;;;;;;;5012075;28;20274;-60
2021/12/23 03:13:22;;;;;;;24.00;16.07;;;;;;;;;;5010832;28;20212;-60
2021/12/23 03:15:47;;;;;;;21.50;14.33;;;;;;;;;;5011869;28;20699;-60
2021/12/23 03:18:13;;;;;;;23.03;15.23;;;;;;;;;;5012683;28;20536;-61
2021/12/23 03:20:38;;;;;;;22.73;14.50;;;;;;;;;;5011200;28;20208;-60
2021/12/23 03:23:03;;;;;;;22.33;14.67;;;;;;;;;;5012710;28;20216;-60
2021/12/23 03:25:29;;;;;;;21.83;14.97;;;;;;;;;;5013262;28;20235;-60
2021/12/23 03:27:54;;;;;;;24.70;16.20;;;;;;;;;;5012438;28;20700;-60
2021/12/23 03:30:19;;;;;;;23.20;14.77;;;;;;;;;;5012482;28;20209;-60
2021/12/23 03:32:45;;;;;;;26.30;16.27;;;;;;;;;;5011841;28;20243;-60
2021/12/23 03:35:10;;;;;;;21.20;14.80;;;;;;;;;;5011483;28;20315;-61
2021/12/23 03:37:35;;;;;;;25.93;14.87;;;;;;;;;;5012935;28;20205;-60
2021/12/23 03:40:02;;;;;;;25.33;15.33;;;;;;;;;;5012375;28;20200;-61
2021/12/23 03:42:28;;;;;;;23.30;15.07;;;;;;;;;;5010679;28;20214;-60
2021/12/23 03:44:53;;;;;;;23.23;15.53;;;;;;;;;;5012422;28;20212;-61
2021/12/23 03:47:18;;;;;;;23.50;15.30;;;;;;;;;;5012282;28;20232;-60
2021/12/23 03:49:43;;;;;;;24.37;14.97;;;;;;;;;;5011711;28;20572;-60
2021/12/23 03:52:09;;;;;;;23.93;14.93;;;;;;;;;;5012184;28;20338;-60
2021/12/23 03:54:34;;;;;;;23.87;14.83;;;;;;;;;;5011194;28;20204;-60
2021/12/23 03:56:59;;;;;;;25.27;16.33;;;;;;;;;;5010468;28;20225;-60
2021/12/23 03:59:24;;;;;;;28.17;15.37;;;;;;;;;;5011961;28;20244;-60
2021/12/23 04:01:50;;;;;;;24.17;16.13;;;;;;;;;;5012809;28;20556;-60
2021/12/23 04:04:15;;;;;;;25.27;16.37;;;;;;;;;;5011243;28;20212;-60
2021/12/23 04:06:40;;;;;;;23.63;15.83;;;;;;;;;;5012400;28;20552;-60
2021/12/23 04:09:05;;;;;;;27.10;16.20;;;;;;;;;;5012016;28;20208;-61
2021/12/23 04:11:31;;;;;;;23.27;15.30;;;;;;;;;;5010225;28;20295;-60
2021/12/23 04:13:58;;;;;;;25.77;15.50;;;;;;;;;;5011646;28;20216;-60
2021/12/23 04:16:23;;;;;;;23.50;15.03;;;;;;;;;;5010666;28;20660;-60
2021/12/23 04:18:50;;;;;;;26.23;16.37;;;;;;;;;;5010727;28;20212;-60
2021/12/23 04:21:16;;;;;;;23.33;14.60;;;;;;;;;;5011491;28;20212;-60
2021/12/23 04:23:41;;;;;;;27.87;16.30;;;;;;;;;;5011505;28;20216;-60
2021/12/23 04:26:09;;;;;;;26.20;17.07;;;;;;;;;;5011574;28;20764;-60
2021/12/23 04:28:44;;;;;;;25.90;15.70;;;;;;;;;;5011909;28;20692;-60
2021/12/23 04:31:09;;;;;;;25.33;16.40;;;;;;;;;;5010547;28;20208;-60
2021/12/23 04:33:34;;;;;;;25.10;16.17;;;;;;;;;;5012044;28;20603;-60
2021/12/23 04:35:59;;;;;;;22.93;15.60;;;;;;;;;;5011588;28;20260;-60
2021/12/23 04:38:25;;;;;;;24.40;15.30;;;;;;;;;;5010703;28;20215;-60
2021/12/23 04:40:50;;;;;;;24.83;16.80;;;;;;;;;;5011497;28;20248;-60
2021/12/23 04:43:15;;;;;;;23.27;14.60;;;;;;;;;;5011361;28;20213;-61
2021/12/23 04:45:40;;;;;;;23.40;15.50;;;;;;;;;;5010640;28;20263;-60
2021/12/23 04:48:06;;;;;;;22.77;15.50;;;;;;;;;;5009850;28;20212;-61
2021/12/23 04:50:31;;;;;;;27.90;17.10;;;;;;;;;;5011369;28;20232;-61
2021/12/23 04:52:56;;;;;;;25.33;16.50;;;;;;;;;;5010686;28;20219;-60
2021/12/23 04:55:22;;;;;;;28.60;16.47;;;;;;;;;;5011118;28;20223;-61
2021/12/23 04:57:47;;;;;;;24.33;15.70;;;;;;;;;;5011368;28;20223;-61
2021/12/23 05:00:15;;;;;;;25.13;15.80;;;;;;;;;;5010018;28;20216;-61
2021/12/23 05:02:40;;;;;;;25.73;16.03;;;;;;;;;;5011411;28;20235;-61
2021/12/23 05:05:06;;;;;;;26.17;15.57;;;;;;;;;;5010742;28;20692;-61
2021/12/23 05:07:31;;;;;;;25.27;16.13;;;;;;;;;;5010480;28;20231;-61
2021/12/23 05:09:56;;;;;;;25.40;16.67;;;;;;;;;;5009897;28;20607;-61
2021/12/23 05:12:22;;;;;;;29.07;17.63;;;;;;;;;;5010672;28;20260;-61
2021/12/23 05:14:47;;;;;;;27.07;17.70;;;;;;;;;;5010507;28;20205;-61
2021/12/23 05:17:12;;;;;;;25.70;16.90;;;;;;;;;;5009191;28;20231;-61
2021/12/23 05:19:37;;;;;;;26.57;17.37;;;;;;;;;;5010390;28;20698;-61
2021/12/23 05:22:03;;;;;;;25.20;16.17;;;;;;;;;;5010514;28;20213;-61
2021/12/23 05:24:29;;;;;;;25.63;15.60;;;;;;;;;;5010206;28;20212;-61
2021/12/23 05:26:54;;;;;;;24.53;15.70;;;;;;;;;;5008704;28;20660;-61
2021/12/23 05:29:20;;;;;;;25.37;15.67;;;;;;;;;;5009059;28;20223;-61
2021/12/23 05:31:45;;;;;;;24.70;16.00;;;;;;;;;;5010647;28;20220;-60
2021/12/23 05:34:11;;;;;;;27.07;16.47;;;;;;;;;;5009585;28;20212;-61
2021/12/23 05:36:36;;;;;;;23.07;15.13;;;;;;;;;;5009303;28;20231;-61
2021/12/23 05:39:01;;;;;;;25.23;16.67;;;;;;;;;;5008862;28;20212;-61
2021/12/23 05:41:27;;;;;;;27.23;16.40;;;;;;;;;;5009768;28;20222;-61
2021/12/23 05:43:54;;;;;;;25.83;16.90;;;;;;;;;;5010713;28;20213;-61
2021/12/23 05:46:19;;;;;;;29.30;17.40;;;;;;;;;;5009710;28;20228;-61
2021/12/23 05:48:44;;;;;;;26.63;17.03;;;;;;;;;;5006818;28;20300;-61
2021/12/23 05:51:10;;;;;;;26.93;16.70;;;;;;;;;;4997617;28;20579;-61
2021/12/23 05:53:35;;;;;;;26.80;16.27;;;;;;;;;;4991040;28;20271;-61
2021/12/23 05:56:00;;;;;;;28.53;17.10;;;;;;;;;;5004689;28;20316;-64
2021/12/23 05:58:25;;;;;;;33.20;17.53;;;;;;;;;;4990675;28;20216;-61
2021/12/23 06:00:53;;;;;;;28.60;16.13;;;;;;;;;;5009669;28;20213;-61
2021/12/23 06:03:18;;;;;;;26.50;16.57;;;;;;;;;;5009149;28;20212;-61
2021/12/23 06:05:43;;;;;;;28.37;18.13;;;;;;;;;;5008940;28;20208;-60
2021/12/23 06:08:09;;;;;;;30.13;18.27;;;;;;;;;;5008412;28;20208;-61
2021/12/23 06:10:34;;;;;;;28.90;18.37;;;;;;;;;;5008330;28;20230;-61
2021/12/23 06:12:59;;;;;;;30.57;18.13;;;;;;;;;;5010431;28;20209;-61
2021/12/23 06:15:25;;;;;;;26.03;17.23;;;;;;;;;;5009781;28;20228;-61
2021/12/23 06:17:50;;;;;;;30.27;18.10;;;;;;;;;;5009345;28;20593;-61
2021/12/23 06:20:15;;;;;;;30.23;17.67;;;;;;;;;;5009432;28;20227;-61
2021/12/23 06:22:40;;;;;;;26.40;17.27;;;;;;;;;;5009788;28;20247;-65
2021/12/23 06:25:07;;;;;;;29.13;18.67;;;;;;;;;;5007958;28;20209;-66
2021/12/23 06:27:32;;;;;;;29.53;18.27;;;;;;;;;;5008898;28;20232;-64
2021/12/23 06:29:57;;;;;;;27.77;17.83;;;;;;;;;;5009356;28;20216;-64
2021/12/23 06:32:23;;;;;;;30.10;21.63;;;;;;;;;;5007318;28;20430;-70
2021/12/23 06:34:48;;;;;;;32.77;18.80;;;;;;;;;;5010220;28;20218;-66
2021/12/23 06:37:13;;;;;;;30.80;18.37;;;;;;;;;;5011751;28;20236;-60
2021/12/23 06:39:39;;;;;;;28.77;18.30;;;;;;;;;;5013723;28;20212;-61
2021/12/23 06:42:05;;;;;;;29.37;19.40;;;;;;;;;;5010764;28;20208;-61
2021/12/23 06:44:30;;;;;;;33.00;19.97;;;;;;;;;;5010340;28;20262;-61
2021/12/23 06:46:55;;;;;;;31.10;18.37;;;;;;;;;;5013321;28;20232;-61
2021/12/23 06:49:21;;;;;;;28.43;18.13;;;;;;;;;;5013065;28;20631;-61
2021/12/23 06:51:46;;;;;;;32.63;19.63;;;;;;;;;;5012959;28;20246;-61
2021/12/23 06:54:17;;;;;;;33.77;19.87;;;;;;;;;;5013127;28;20274;-62
2021/12/23 06:56:42;;;;;;;32.53;20.97;;;;;;;;;;5013493;28;20250;-61
2021/12/23 06:59:08;;;;;;;37.27;22.10;;;;;;;;;;5012598;28;20236;-61
2021/12/23 07:01:33;;;;;;;37.80;22.90;;;;;;;;;;5012311;28;20213;-60
2021/12/23 07:04:08;;;;;;;34.67;20.63;;;;;;;;;;5007611;28;20248;-60
2021/12/23 07:06:35;;;;;;;32.47;20.53;;;;;;;;;;5009227;28;20216;-60
2021/12/23 07:09:02;;;;;;;33.97;20.57;;;;;;;;;;5012482;28;20216;-61
2021/12/23 07:11:27;;;;;;;34.67;21.10;;;;;;;;;;5012972;28;20274;-61
2021/12/23 07:13:53;;;;;;;32.77;19.50;;;;;;;;;;5012410;28;20205;-61
2021/12/23 07:16:18;;;;;;;32.63;19.13;;;;;;;;;;5012713;28;20224;-61
2021/12/23 07:18:43;;;;;;;34.93;20.07;;;;;;;;;;5012855;28;20208;-61
2021/12/23 07:21:08;;;;;;;31.53;18.63;;;;;;;;;;5011909;28;20251;-61
2021/12/23 07:23:34;;;;;;;31.10;19.63;;;;;;;;;;5013071;28;20208;-61
2021/12/23 07:25:59;;;;;;;31.47;20.20;;;;;;;;;;5011645;28;20299;-60
2021/12/23 07:28:24;;;;;;;34.23;20.00;;;;;;;;;;5011801;28;20258;-61
2021/12/23 07:30:50;;;;;;;33.50;19.63;;;;;;;;;;5013041;28;20711;-60
2021/12/23 07:33:15;;;;;;;34.17;20.77;;;;;;;;;;5011378;28;20254;-61
2021/12/23 07:35:40;;;;;;;32.60;19.63;;;;;;;;;;5011253;28;20728;-61
2021/12/23 07:38:06;;;;;;;30.70;19.07;;;;;;;;;;5001910;28;20356;-61
2021/12/23 07:40:31;;;;;;;33.93;19.73;;;;;;;;;;5009431;28;20243;-61
2021/12/23 07:43:08;;;;;;;32.63;19.27;;;;;;;;;;5007635;28;20220;-60
2021/12/23 07:45:33;;;;;;;34.20;19.13;;;;;;;;;;5001067;28;20826;-60
2021/12/23 07:47:59;;;;;;;32.77;20.50;;;;;;;;;;5032460;28;20243;-61
2021/12/23 07:50:25;;;;;;;36.97;21.83;;;;;;;;;;5033548;28;20228;-60
2021/12/23 07:52:51;;;;;;;36.80;21.80;;;;;;;;;;5034284;28;20215;-60
2021/12/23 07:55:16;;;;;;;35.00;20.20;;;;;;;;;;5032871;28;20617;-61
2021/12/23 07:57:41;;;;;;;34.27;20.30;;;;;;;;;;5032976;28;20242;-60
2021/12/23 08:00:07;;;;;;;35.60;20.50;;;;;;;;;;5029324;28;20236;-61
2021/12/23 08:02:32;;;;;;;37.53;23.23;;;;;;;;;;5028148;28;20291;-61
2021/12/23 08:04:57;;;;;;;33.93;19.50;;;;;;;;;;4994422;28;20225;-61
2021/12/23 08:07:23;;;;;;;35.87;21.80;;;;;;;;;;5009803;28;20704;-60
2021/12/23 08:09:48;;;;;;;33.40;19.23;;;;;;;;;;5013540;28;20220;-60
2021/12/23 08:12:13;;;;;;;32.83;19.47;;;;;;;;;;5013816;28;20299;-61
2021/12/23 08:14:38;;;;;;;35.53;21.13;;;;;;;;;;5005206;28;20611;-60
2021/12/23 08:17:04;;;;;;;35.30;20.50;;;;;;;;;;4992898;28;20225;-61
2021/12/23 08:19:29;;;;;;;33.53;20.90;;;;;;;;;;4994391;28;20220;-61
2021/12/23 08:21:54;;;;;;;36.87;23.10;;;;;;;;;;5025151;28;20231;-61
2021/12/23 08:24:20;;;;;;;36.50;22.60;;;;;;;;;;5030766;28;20361;-60
2021/12/23 08:26:51;;;;;;;34.13;21.77;;;;;;;;;;5014276;28;20219;-60
2021/12/23 08:29:18;;;;;;;38.97;22.90;;;;;;;;;;5011344;28;20213;-60
2021/12/23 08:31:44;;;;;;;34.13;22.67;;;;;;;;;;5011148;28;20706;-60
2021/12/23 08:34:09;;;;;;;36.60;21.70;;;;;;;;;;5011142;28;20220;-61
2021/12/23 08:36:35;;;;;;;37.87;21.63;;;;;;;;;;5010747;28;20231;-60
2021/12/23 08:39:00;;;;;;;38.37;23.40;;;;;;;;;;5011324;28;20303;-61
2021/12/23 08:41:26;;;;;;;37.30;22.80;;;;;;;;;;5011347;28;20240;-60
2021/12/23 08:43:51;;;;;;;32.63;20.03;;;;;;;;;;4992544;28;20633;-60
2021/12/23 08:46:16;;;;;;;33.83;21.10;;;;;;;;;;5009601;28;20442;-60
2021/12/23 08:48:42;;;;;;;37.27;26.10;;;;;;;;;;5010094;28;20474;-60
2021/12/23 08:51:07;;;;;;;36.27;23.93;;;;;;;;;;5010273;28;20750;-60
2021/12/23 08:53:32;;;;;;;35.87;25.00;;;;;;;;;;5010564;28;20415;-59
2021/12/23 08:55:58;;;;;;;33.37;20.87;;;;;;;;;;5011246;28;20286;-59
2021/12/23 08:58:23;;;;;;;35.93;21.93;;;;;;;;;;5010079;28;20213;-60
2021/12/23 09:00:48;;;;;;;43.10;29.80;;;;;;;;;;5011571;28;20248;-59
2021/12/23 09:03:13;;;;;;;31.50;20.53;;;;;;;;;;5010559;28;20680;-60
2021/12/23 09:05:40;;;;;;;33.77;21.80;;;;;;;;;;5010412;28;20251;-60
2021/12/23 09:08:05;;;;;;;33.17;20.13;;;;;;;;;;5010665;28;20691;-60
2021/12/23 09:10:31;;;;;;;35.10;22.93;;;;;;;;;;5011057;28;20303;-59
2021/12/23 09:12:56;;;;;;;34.20;20.53;;;;;;;;;;5009122;28;20223;-59
2021/12/23 09:15:21;;;;;;;34.13;20.30;;;;;;;;;;5010496;28;20224;-59
2021/12/23 09:17:47;;;;;;;35.03;20.90;;;;;;;;;;5009437;28;20295;-59
2021/12/23 09:20:13;;;;;;;36.53;20.83;;;;;;;;;;5012260;28;20208;-60
2021/12/23 09:22:38;;;;;;;35.67;20.83;;;;;;;;;;5015351;28;20672;-59
2021/12/23 09:25:10;;;;;;;34.87;20.93;;;;;;;;;;5010591;28;20208;-60
2021/12/23 09:27:42;;;;;;;33.47;20.53;;;;;;;;;;5009471;28;20303;-60
2021/12/23 09:32:52;;;;;;;35.03;20.57;;;;;;;;;;5008701;28;20266;-60
2021/12/23 09:35:18;;;;;;;31.60;19.97;;;;;;;;;;5010226;28;20585;-60
2021/12/23 09:37:44;;;;;;;36.40;20.90;;;;;;;;;;5010567;28;20216;-60
2021/12/23 09:40:09;;;;;;;35.07;20.03;;;;;;;;;;5009324;28;20219;-60
2021/12/23 09:42:35;;;;;;;33.90;20.90;;;;;;;;;;5010650;28;20208;-60
2021/12/23 09:45:03;;;;;;;32.13;19.47;;;;;;;;;;5009257;28;20205;-60
2021/12/23 09:47:30;;;;;;;35.00;21.47;;;;;;;;;;5009062;28;20212;-60
2021/12/23 09:49:56;;;;;;;32.53;19.70;;;;;;;;;;5010440;28;20273;-59
2021/12/23 09:52:21;;;;;;;36.23;20.80;;;;;;;;;;5009922;28;20299;-60
2021/12/23 09:54:47;;;;;;;34.93;20.77;;;;;;;;;;5008455;28;20688;-59
2021/12/23 09:57:12;;;;;;;34.37;20.70;;;;;;;;;;5009714;28;20235;-60
2021/12/23 09:59:37;;;;;;;34.83;21.13;;;;;;;;;;5010587;28;20232;-60
2021/12/23 10:02:03;;;;;;;36.10;20.63;;;;;;;;;;5007503;28;20676;-59
2021/12/23 10:04:28;;;;;;;35.20;20.67;;;;;;;;;;5010207;28;20203;-59
2021/12/23 10:06:54;;;;;;;35.90;19.57;;;;;;;;;;5008820;28;20220;-60
2021/12/23 10:09:37;;;;;;;32.80;19.80;;;;;;;;;;5009073;28;20680;-60
2021/12/23 10:30:07;;;;;;;36.63;21.53;;;;;;;;;;5009515;28;20215;-59
2021/12/23 10:31:27;;;;;;;36.30;21.40;;;;;;;;;;5009838;28;20283;-60
2021/12/23 10:37:13;;;;;;;35.07;20.50;;;;;;;;;;5028384;28;20204;-60
2021/12/23 10:37:15;;;;;;;38.07;21.97;;;;;;;;;;5013886;28;20231;-60
2021/12/23 10:39:43;;;;;;;36.97;22.43;;;;;;;;;;5009959;28;20216;-60
2021/12/23 10:42:09;;;;;;;38.13;22.83;;;;;;;;;;5008193;28;20216;-61
2021/12/23 10:44:34;;;;;;;38.93;21.40;;;;;;;;;;5006975;28;20212;-60
2021/12/23 10:47:00;;;;;;;36.17;21.00;;;;;;;;;;5029269;28;20243;-60
2021/12/23 10:49:32;;;;;;;35.50;21.70;;;;;;;;;;5013594;28;20212;-60
2021/12/23 10:52:02;;;;;;;35.47;21.53;;;;;;;;;;5008097;28;20205;-60
2021/12/23 10:58:01;;;;;;;34.90;21.83;;;;;;;;;;5009504;28;20698;-60
2021/12/23 11:00:12;;;;;;;34.53;21.37;;;;;;;;;;5008450;28;20262;-60
2021/12/23 11:02:39;;;;;;;39.00;22.13;;;;;;;;;;5009456;28;20213;-60
2021/12/23 11:05:18;;;;;;;35.83;21.53;;;;;;;;;;5008674;28;20216;-60
2021/12/23 11:07:54;;;;;;;39.57;24.33;;;;;;;;;;5009869;28;20216;-60
2021/12/23 11:10:36;;;;;;;42.83;25.27;;;;;;;;;;5008034;28;20629;-60
2021/12/23 11:30:12;;;;;;;39.63;20.23;;;;;;;;;;5011509;28;20211;-59
2021/12/23 11:35:45;;;;;;;36.97;20.97;;;;;;;;;;5012198;28;20212;-59
2021/12/23 11:38:08;;;;;;;36.03;20.50;;;;;;;;;;5013051;28;20265;-59
2021/12/23 11:40:51;;;;;;;35.63;21.07;;;;;;;;;;5011472;28;20208;-59
2021/12/23 11:45:45;;;;;;;37.67;20.70;;;;;;;;;;5011337;28;20315;-59
2021/12/23 11:48:10;;;;;;;36.33;21.10;;;;;;;;;;5011305;28;20568;-60
2021/12/23 11:50:52;;;;;;;36.40;20.80;;;;;;;;;;5012555;28;20219;-59
2021/12/23 11:53:18;;;;;;;33.13;19.60;;;;;;;;;;5011149;28;20211;-59
2021/12/23 11:55:43;;;;;;;35.37;20.17;;;;;;;;;;5010438;28;20605;-59
2021/12/23 11:58:08;;;;;;;33.43;19.70;;;;;;;;;;5010821;28;20299;-60
2021/12/23 12:00:42;;;;;;;35.37;19.80;;;;;;;;;;5010195;28;20215;-60
2021/12/23 12:03:07;;;;;;;34.47;19.47;;;;;;;;;;5010537;28;20220;-61
2021/12/23 12:05:33;;;;;;;38.43;19.87;;;;;;;;;;5010759;28;20205;-61
2021/12/23 12:08:07;;;;;;;34.63;20.20;;;;;;;;;;5011938;28;20212;-61
2021/12/23 12:10:33;;;;;;;36.17;20.83;;;;;;;;;;5010843;28;20579;-61
2021/12/23 12:13:00;;;;;;;33.87;19.27;;;;;;;;;;5011076;28;20243;-61
2021/12/23 12:15:43;;;;;;;34.70;19.67;;;;;;;;;;5011105;28;20221;-61
2021/12/23 12:18:08;;;;;;;37.63;20.37;;;;;;;;;;5011374;28;20299;-62
2021/12/23 12:20:36;;;;;;;33.47;19.03;;;;;;;;;;5012422;28;20299;-62
2021/12/23 12:23:10;;;;;;;35.83;19.77;;;;;;;;;;5009766;28;20247;-62
2021/12/23 12:25:40;;;;;;;36.27;18.90;;;;;;;;;;5010708;28;20690;-61
2021/12/23 12:28:06;;;;;;;36.70;20.17;;;;;;;;;;5011689;28;20352;-61
2021/12/23 12:30:43;;;;;;;32.43;19.67;;;;;;;;;;5011050;28;20295;-61
2021/12/23 12:33:10;;;;;;;36.67;20.20;;;;;;;;;;5011020;28;20209;-62
2021/12/23 12:35:35;;;;;;;33.30;19.80;;;;;;;;;;5010029;28;20232;-61
2021/12/23 12:38:10;;;;;;;31.80;18.60;;;;;;;;;;5011433;28;20687;-61
2021/12/23 12:40:54;;;;;;;39.13;20.30;;;;;;;;;;5010169;28;20714;-61
2021/12/23 12:43:55;;;;;;;32.10;19.00;;;;;;;;;;5010525;28;20213;-62
2021/12/23 12:46:34;;;;;;;37.77;20.77;;;;;;;;;;5010624;28;20235;-62
2021/12/23 12:49:01;;;;;;;33.47;19.97;;;;;;;;;;5011561;28;20212;-61
2021/12/23 12:51:33;;;;;;;36.93;19.93;;;;;;;;;;5009476;28;20568;-61
2021/12/23 12:54:04;;;;;;;31.60;18.83;;;;;;;;;;5010468;28;20707;-61
2021/12/23 12:56:29;;;;;;;35.67;20.53;;;;;;;;;;5009671;28;20294;-61
2021/12/23 12:58:55;;;;;;;34.70;19.47;;;;;;;;;;5009372;28;20687;-62
2021/12/23 13:01:30;;;;;;;35.63;19.57;;;;;;;;;;5013150;28;20691;-61
2021/12/23 13:03:56;;;;;;;32.83;19.53;;;;;;;;;;5030319;28;20682;-62
2021/12/23 13:06:21;;;;;;;34.57;19.67;;;;;;;;;;5021900;28;20299;-62
2021/12/23 13:08:46;;;;;;;37.20;19.47;;;;;;;;;;5011455;28;20217;-62
2021/12/23 13:11:12;;;;;;;34.27;20.20;;;;;;;;;;5008754;28;20221;-62
2021/12/23 13:13:43;;;;;;;36.27;20.07;;;;;;;;;;5011276;28;20207;-61
2021/12/23 13:16:13;;;;;;;33.27;19.73;;;;;;;;;;5011000;28;20220;-62
2021/12/23 13:18:38;;;;;;;32.57;18.63;;;;;;;;;;5030004;28;20215;-62
2021/12/23 13:21:06;;;;;;;35.47;20.40;;;;;;;;;;5029396;28;20208;-62
2021/12/23 13:23:33;;;;;;;35.07;19.47;;;;;;;;;;5011133;28;20228;-61
2021/12/23 13:25:59;;;;;;;33.53;20.30;;;;;;;;;;5009235;28;20641;-61
2021/12/23 13:28:27;;;;;;;35.43;19.70;;;;;;;;;;5009176;28;20212;-62
2021/12/23 13:30:53;;;;;;;34.33;20.07;;;;;;;;;;5009739;28;20227;-61
2021/12/23 13:33:18;;;;;;;33.83;18.93;;;;;;;;;;5028073;28;20211;-61
2021/12/23 13:35:43;;;;;;;32.27;19.67;;;;;;;;;;5029277;28;20714;-62
2021/12/23 13:38:10;;;;;;;33.37;19.37;;;;;;;;;;5030107;28;20231;-62
2021/12/23 13:40:40;;;;;;;33.37;19.20;;;;;;;;;;5019659;28;20300;-62
2021/12/23 13:43:05;;;;;;;34.10;19.50;;;;;;;;;;5008914;28;20223;-62
2021/12/23 13:45:30;;;;;;;38.60;19.90;;;;;;;;;;5009508;28;20209;-62
2021/12/23 13:47:56;;;;;;;36.17;19.93;;;;;;;;;;5008528;28;20220;-61
2021/12/23 13:50:22;;;;;;;42.37;23.03;;;;;;;;;;5010271;28;20442;-62
2021/12/23 13:52:48;;;;;;;35.50;20.97;;;;;;;;;;5009275;28;20212;-62
2021/12/23 13:55:14;;;;;;;36.67;20.37;;;;;;;;;;4991905;28;20212;-62
2021/12/23 13:57:42;;;;;;;35.20;20.13;;;;;;;;;;5010167;28;20303;-61
2021/12/23 14:00:18;;;;;;;36.13;20.20;;;;;;;;;;5008222;28;20208;-62
2021/12/23 14:02:44;;;;;;;32.63;19.30;;;;;;;;;;4999092;28;20219;-62
2021/12/23 14:05:10;;;;;;;35.07;19.03;;;;;;;;;;4994067;28;20209;-61
2021/12/23 14:07:38;;;;;;;35.10;19.60;;;;;;;;;;4996130;28;20212;-61
2021/12/23 14:10:04;;;;;;;37.17;21.20;;;;;;;;;;4996870;28;20250;-62
2021/12/23 14:12:42;;;;;;;33.50;19.37;;;;;;;;;;5003289;28;20216;-61
2021/12/23 14:15:07;;;;;;;34.83;20.10;;;;;;;;;;5003938;28;20601;-62
2021/12/23 14:17:34;;;;;;;37.60;20.63;;;;;;;;;;5004372;28;20216;-61
2021/12/23 14:23:11;;;;;;;32.10;18.93;;;;;;;;;;5004292;28;20208;-61
2021/12/23 14:23:12;;;;;;;35.43;19.53;;;;;;;;;;5003773;28;20216;-62
2021/12/23 14:25:37;;;;;;;34.60;19.13;;;;;;;;;;5000114;28;20580;-61
2021/12/23 14:28:02;;;;;;;38.40;22.03;;;;;;;;;;4996029;28;20216;-62
2021/12/23 14:30:33;;;;;;;38.17;21.80;;;;;;;;;;4995900;28;20222;-61
2021/12/23 14:33:05;;;;;;;37.77;21.77;;;;;;;;;;4999631;28;20688;-61
2021/12/23 14:35:31;;;;;;;38.27;21.23;;;;;;;;;;5003194;28;20236;-61
2021/12/23 14:37:59;;;;;;;34.90;20.37;;;;;;;;;;5004658;28;20368;-61
2021/12/23 14:40:25;;;;;;;37.30;20.93;;;;;;;;;;5004162;28;20563;-61
2021/12/23 14:42:57;;;;;;;34.67;20.20;;;;;;;;;;5003623;28;20216;-61
2021/12/23 14:45:23;;;;;;;40.50;23.33;;;;;;;;;;5004035;28;20220;-61
2021/12/23 14:47:58;;;;;;;42.77;22.87;;;;;;;;;;5002441;28;20230;-62
2021/12/23 14:50:25;;;;;;;35.90;21.13;;;;;;;;;;4995603;28;20737;-62
2021/12/23 14:52:53;;;;;;;36.07;21.07;;;;;;;;;;4996129;28;20208;-61
2021/12/23 14:55:18;;;;;;;34.80;20.17;;;;;;;;;;4998236;28;20217;-61
2021/12/23 14:57:45;;;;;;;35.07;20.10;;;;;;;;;;5005745;28;20920;-61
2021/12/23 15:00:12;;;;;;;36.57;19.33;;;;;;;;;;5007704;28;20212;-62
2021/12/23 15:02:38;;;;;;;34.77;19.93;;;;;;;;;;5011175;28;20754;-62
2021/12/23 15:05:05;;;;;;;37.10;20.00;;;;;;;;;;5013593;28;20312;-61
2021/12/23 15:07:46;;;;;;;34.60;20.57;;;;;;;;;;5014739;28;20218;-62